Aviation Digital Data Service (ADDS)

Output produced by METARs form (1600 UTC 21 August 2014)
found at http://aviationweather.gov/adds/metars/
 
KRDU 211124Z 2112/2212 VRB03KT 5SM BR SCT004 BKN250 
     FM211300 30005KT P6SM SCT050 BKN250 
     FM211800 31005KT P6SM BKN050 BKN250 
     FM220900 31003KT 4SM BR BKN250